createdAt,value
2024-04-30T00:01:58.013Z,18.08
2024-04-30T00:04:26.226Z,18.02
2024-04-30T00:06:55.078Z,17.97
2024-04-30T00:09:22.641Z,17.93
2024-04-30T00:11:50.267Z,17.87
2024-04-30T00:14:17.837Z,17.82
2024-04-30T00:16:45.508Z,17.77
2024-04-30T00:19:13.253Z,17.70
2024-04-30T00:21:42.905Z,17.65
2024-04-30T00:24:10.892Z,17.58
2024-04-30T00:26:38.665Z,17.50
2024-04-30T00:29:06.196Z,17.45
2024-04-30T00:31:33.799Z,17.39
2024-04-30T00:34:01.521Z,17.32
2024-04-30T00:36:29.141Z,17.25
2024-04-30T00:38:56.792Z,17.17
2024-04-30T00:41:24.370Z,17.12
2024-04-30T00:43:51.927Z,17.09
2024-04-30T00:46:19.639Z,17.05
2024-04-30T00:48:47.199Z,17.01
2024-04-30T00:51:14.832Z,17.00
2024-04-30T00:53:42.788Z,16.99
2024-04-30T00:56:10.438Z,16.97
2024-04-30T00:58:38.115Z,16.95
2024-04-30T01:01:05.971Z,16.91
2024-04-30T01:03:33.991Z,16.86
2024-04-30T01:06:02.358Z,16.81
2024-04-30T01:08:29.852Z,16.75
2024-04-30T01:10:57.406Z,16.71
2024-04-30T01:13:28.398Z,16.67
2024-04-30T01:15:56.065Z,16.64
2024-04-30T01:18:23.701Z,16.62
2024-04-30T01:20:51.272Z,16.60
2024-04-30T01:23:18.880Z,16.58
2024-04-30T01:25:46.591Z,16.56
2024-04-30T01:28:14.369Z,16.55
2024-04-30T01:33:29.722Z,16.52
2024-04-30T01:35:58.171Z,16.51
2024-04-30T01:38:26.269Z,16.49
2024-04-30T01:40:53.912Z,16.48
2024-04-30T01:43:21.622Z,16.45
2024-04-30T01:45:49.302Z,16.39
2024-04-30T01:48:17.007Z,16.36
2024-04-30T01:50:44.641Z,16.33
2024-04-30T01:53:12.207Z,16.31
2024-04-30T01:55:39.772Z,16.28
2024-04-30T01:58:07.355Z,16.26
2024-04-30T02:00:35.190Z,16.26
2024-04-30T02:03:02.973Z,16.23
2024-04-30T02:05:30.613Z,16.21
2024-04-30T02:07:59.594Z,16.21
2024-04-30T02:10:27.351Z,16.20
2024-04-30T02:12:55.023Z,16.18
2024-04-30T02:15:23.014Z,16.16
2024-04-30T02:17:50.739Z,16.14
2024-04-30T02:20:18.386Z,16.13
2024-04-30T02:22:45.914Z,16.11
2024-04-30T02:25:13.503Z,16.10
2024-04-30T02:27:41.944Z,16.08
2024-04-30T02:30:17.771Z,16.05
2024-04-30T02:33:04.484Z,16.04
2024-04-30T02:35:32.397Z,16.03
2024-04-30T02:37:59.967Z,16.01
2024-04-30T02:40:27.498Z,15.99
2024-04-30T02:42:55.223Z,15.98
2024-04-30T02:45:23.145Z,15.97
2024-04-30T02:47:50.707Z,15.96
2024-04-30T02:50:18.280Z,15.95
2024-04-30T02:52:45.848Z,15.95
2024-04-30T02:55:13.619Z,15.95
2024-04-30T02:57:41.163Z,15.95
2024-04-30T03:00:09.042Z,15.94
2024-04-30T03:02:36.702Z,15.93
2024-04-30T03:05:04.751Z,15.93
2024-04-30T03:07:32.437Z,15.93
2024-04-30T03:10:00.747Z,15.93
2024-04-30T03:12:28.485Z,15.92
2024-04-30T03:14:56.041Z,15.91
2024-04-30T03:17:23.667Z,15.90
2024-04-30T03:19:51.515Z,15.90
2024-04-30T03:22:19.376Z,15.87
2024-04-30T03:24:46.960Z,15.86
2024-04-30T03:27:14.548Z,15.85
2024-04-30T03:29:42.504Z,15.84
2024-04-30T03:32:09.959Z,15.83
2024-04-30T03:34:38.600Z,15.82
2024-04-30T03:37:06.379Z,15.81
2024-04-30T03:39:33.906Z,15.79
2024-04-30T03:42:01.658Z,15.77
2024-04-30T03:44:29.171Z,15.75
2024-04-30T03:46:56.853Z,15.75
2024-04-30T03:49:24.435Z,15.75
2024-04-30T03:51:52.168Z,15.75
2024-04-30T03:54:19.756Z,15.76
2024-04-30T03:56:47.304Z,15.75
2024-04-30T03:59:17.170Z,15.94
2024-04-30T04:01:44.713Z,17.08
2024-04-30T04:04:12.352Z,18.16
2024-04-30T04:06:40.013Z,18.91
2024-04-30T04:09:07.655Z,19.17
2024-04-30T04:11:54.331Z,18.70
2024-04-30T04:14:41.663Z,18.11
2024-04-30T04:17:10.597Z,17.73
2024-04-30T04:19:38.918Z,17.48
2024-04-30T04:22:07.043Z,17.27
2024-04-30T04:24:34.899Z,17.11
2024-04-30T04:27:02.814Z,16.98
2024-04-30T04:29:30.773Z,16.88
2024-04-30T04:32:00.988Z,16.78
2024-04-30T04:34:29.080Z,16.72
2024-04-30T04:36:56.723Z,16.68
2024-04-30T04:39:24.383Z,16.66
2024-04-30T04:41:52.056Z,16.63
2024-04-30T04:44:19.611Z,16.60
2024-04-30T04:46:47.237Z,16.58
2024-04-30T04:49:14.734Z,16.58
2024-04-30T04:51:42.344Z,16.60
2024-04-30T04:54:09.936Z,16.61
2024-04-30T04:56:37.637Z,16.64
2024-04-30T04:59:05.252Z,16.68
2024-04-30T05:01:32.944Z,16.71
2024-04-30T05:04:01.079Z,16.76
2024-04-30T05:06:28.862Z,16.80
2024-04-30T05:08:56.396Z,16.84
2024-04-30T05:11:24.387Z,16.88
2024-04-30T05:13:52.353Z,16.93
2024-04-30T05:16:20.068Z,16.97
2024-04-30T05:18:47.682Z,17.00
2024-04-30T05:21:15.217Z,17.03
2024-04-30T05:23:42.788Z,17.08
2024-04-30T05:26:10.352Z,17.12
2024-04-30T05:28:38.649Z,17.16
2024-04-30T05:31:06.472Z,17.18
2024-04-30T05:33:34.232Z,17.24
2024-04-30T05:36:02.186Z,17.31
2024-04-30T05:38:29.833Z,17.39
2024-04-30T05:40:57.420Z,17.48
2024-04-30T05:43:25.171Z,17.55
2024-04-30T05:45:52.879Z,17.61
2024-04-30T05:48:20.429Z,17.69
2024-04-30T05:50:48.088Z,17.78
2024-04-30T05:53:15.911Z,17.87
2024-04-30T05:55:43.663Z,17.96
2024-04-30T05:58:13.656Z,18.05
2024-04-30T06:00:41.440Z,18.12
2024-04-30T06:03:09.193Z,18.18
2024-04-30T06:05:36.993Z,18.27
2024-04-30T06:08:04.925Z,18.37
2024-04-30T06:10:32.506Z,18.46
2024-04-30T06:13:00.082Z,18.55
2024-04-30T06:15:28.020Z,18.65
2024-04-30T06:17:57.166Z,18.74
2024-04-30T06:20:24.965Z,18.84
2024-04-30T06:22:52.744Z,18.94
2024-04-30T06:25:20.359Z,19.01
2024-04-30T06:27:48.867Z,19.10
2024-04-30T06:30:16.471Z,19.16
2024-04-30T06:32:44.212Z,19.26
2024-04-30T06:35:11.996Z,19.40
2024-04-30T06:37:39.684Z,19.52
2024-04-30T06:40:07.765Z,19.63
2024-04-30T06:42:35.370Z,19.73
2024-04-30T06:45:03.281Z,19.88
2024-04-30T06:47:31.054Z,20.06
2024-04-30T06:49:58.939Z,20.23
2024-04-30T06:52:26.666Z,20.39
2024-04-30T06:54:54.384Z,20.55
2024-04-30T06:57:22.030Z,20.70
2024-04-30T06:59:49.786Z,20.85
2024-04-30T07:02:20.273Z,21.02
2024-04-30T07:04:47.958Z,21.17
2024-04-30T07:07:15.716Z,21.32
2024-04-30T07:09:43.302Z,21.44
2024-04-30T07:12:12.510Z,21.50
2024-04-30T07:14:40.574Z,21.59
2024-04-30T07:17:09.305Z,21.69
2024-04-30T07:19:37.606Z,21.80
2024-04-30T07:22:05.598Z,21.94
2024-04-30T07:24:33.199Z,22.06
2024-04-30T07:27:00.789Z,22.18
2024-04-30T07:30:19.611Z,22.31
2024-04-30T07:33:06.180Z,22.48
2024-04-30T07:35:33.968Z,22.59
2024-04-30T07:38:01.626Z,22.71
2024-04-30T07:40:29.358Z,22.83
2024-04-30T07:42:56.989Z,22.94
2024-04-30T07:45:24.647Z,23.07
2024-04-30T07:47:52.334Z,23.20
2024-04-30T07:50:20.279Z,23.33
2024-04-30T07:52:47.885Z,23.47
2024-04-30T07:55:15.452Z,23.64
2024-04-30T07:57:43.144Z,23.80
2024-04-30T08:00:12.006Z,23.94
2024-04-30T08:02:39.769Z,24.08
2024-04-30T08:05:07.401Z,24.25
2024-04-30T08:07:34.999Z,24.39
2024-04-30T08:10:04.678Z,24.51
2024-04-30T08:12:32.530Z,24.66
2024-04-30T08:15:01.092Z,24.80
2024-04-30T08:17:30.214Z,24.95
2024-04-30T08:19:57.777Z,25.13
2024-04-30T08:22:26.044Z,25.30
2024-04-30T08:24:53.550Z,25.43
2024-04-30T08:27:23.783Z,25.60
2024-04-30T08:29:53.092Z,25.78
2024-04-30T08:32:21.208Z,25.95
2024-04-30T08:34:48.685Z,26.09
2024-04-30T08:37:16.244Z,26.19
2024-04-30T08:39:43.777Z,26.31
2024-04-30T08:42:11.355Z,26.44
2024-04-30T08:44:38.940Z,26.59
2024-04-30T08:47:06.598Z,26.67
2024-04-30T08:49:42.865Z,26.77
2024-04-30T08:52:16.221Z,26.88
2024-04-30T08:54:43.930Z,26.99
2024-04-30T08:57:11.720Z,27.08
2024-04-30T08:59:39.259Z,27.17
2024-04-30T09:02:06.993Z,27.24
2024-04-30T09:04:34.674Z,27.33
2024-04-30T09:07:02.492Z,27.40
2024-04-30T09:09:30.035Z,27.48
2024-04-30T09:11:58.377Z,27.54
2024-04-30T09:14:25.974Z,27.55
2024-04-30T09:16:53.956Z,27.56
2024-04-30T09:19:25.658Z,27.64
2024-04-30T09:22:02.589Z,27.77
2024-04-30T09:24:30.273Z,27.89
2024-04-30T09:26:58.095Z,28.02
2024-04-30T09:29:35.162Z,28.11
2024-04-30T09:32:03.063Z,28.14
2024-04-30T09:34:40.379Z,28.14
2024-04-30T09:37:18.635Z,28.17
2024-04-30T09:39:50.054Z,28.23
2024-04-30T09:42:17.774Z,28.29
2024-04-30T09:44:45.355Z,28.39
2024-04-30T09:47:14.234Z,28.50
2024-04-30T09:49:42.167Z,28.64
2024-04-30T09:52:09.934Z,28.79
2024-04-30T09:54:37.912Z,28.88
2024-04-30T09:57:06.918Z,29.00
2024-04-30T09:59:34.699Z,29.11
2024-04-30T10:02:04.284Z,29.17
2024-04-30T10:04:31.921Z,29.23
2024-04-30T10:06:59.539Z,29.36
2024-04-30T10:09:27.152Z,29.50
2024-04-30T10:11:54.640Z,29.58
2024-04-30T10:14:29.017Z,29.62
2024-04-30T10:17:00.310Z,29.72
2024-04-30T10:19:29.095Z,29.85
2024-04-30T10:21:56.754Z,29.95
2024-04-30T10:24:24.446Z,30.08
2024-04-30T10:26:52.314Z,30.23
2024-04-30T10:29:20.133Z,30.27
2024-04-30T10:31:48.835Z,30.32
2024-04-30T10:34:17.187Z,30.43
2024-04-30T10:36:48.889Z,30.56
2024-04-30T10:39:28.471Z,30.73
2024-04-30T10:41:56.155Z,30.91
2024-04-30T10:44:23.843Z,31.08
2024-04-30T10:46:51.461Z,31.19
2024-04-30T10:49:21.479Z,31.34
2024-04-30T10:51:50.767Z,31.44
2024-04-30T10:54:18.355Z,31.51
2024-04-30T10:56:46.017Z,31.62
2024-04-30T10:59:13.643Z,31.62
2024-04-30T11:01:41.535Z,31.60
2024-04-30T11:04:10.124Z,31.58
2024-04-30T11:06:38.855Z,31.60
2024-04-30T11:09:07.500Z,31.73
2024-04-30T11:11:47.740Z,31.89
2024-04-30T11:14:15.949Z,32.03
2024-04-30T11:16:47.714Z,32.17
2024-04-30T11:19:15.907Z,32.22
2024-04-30T11:21:44.636Z,32.18
2024-04-30T11:24:12.334Z,32.11
2024-04-30T11:26:39.979Z,32.12
2024-04-30T11:29:22.937Z,32.27
2024-04-30T11:31:55.457Z,32.47
2024-04-30T11:34:23.222Z,32.62
2024-04-30T11:36:51.519Z,32.71
2024-04-30T11:39:19.198Z,32.75
2024-04-30T11:41:52.245Z,32.80
2024-04-30T11:44:28.752Z,32.84
2024-04-30T11:46:56.408Z,32.79
2024-04-30T11:49:24.104Z,32.73
2024-04-30T11:51:51.832Z,32.71
2024-04-30T11:54:19.446Z,32.69
2024-04-30T11:56:47.026Z,32.70
2024-04-30T11:59:14.752Z,32.71
2024-04-30T12:01:42.360Z,32.74
2024-04-30T12:04:09.969Z,32.78
2024-04-30T12:06:38.944Z,32.82
2024-04-30T12:09:07.031Z,32.83
2024-04-30T12:11:40.795Z,32.86
2024-04-30T12:14:08.428Z,32.91
2024-04-30T12:16:36.043Z,33.03
2024-04-30T12:19:04.980Z,33.07
2024-04-30T12:21:32.754Z,33.08
2024-04-30T12:24:00.611Z,33.07
2024-04-30T12:26:28.382Z,32.99
2024-04-30T12:28:55.920Z,32.96
2024-04-30T12:31:23.532Z,32.95
2024-04-30T12:33:51.185Z,32.93
2024-04-30T12:36:18.953Z,32.87
2024-04-30T12:38:46.541Z,32.82
2024-04-30T12:41:14.187Z,32.89
2024-04-30T12:43:41.801Z,32.99
2024-04-30T12:46:09.572Z,33.10
2024-04-30T12:48:37.293Z,33.27
2024-04-30T12:51:05.259Z,33.43
2024-04-30T12:53:33.022Z,33.48
2024-04-30T12:56:03.336Z,33.59
2024-04-30T12:58:31.021Z,33.72
2024-04-30T13:00:58.625Z,33.71
2024-04-30T13:03:26.442Z,33.70
2024-04-30T13:05:54.209Z,33.70
2024-04-30T13:08:22.273Z,33.74
2024-04-30T13:10:50.345Z,33.81
2024-04-30T13:13:18.363Z,33.76
2024-04-30T13:15:46.094Z,33.80
2024-04-30T13:18:13.590Z,33.97
2024-04-30T13:20:41.335Z,34.10
2024-04-30T13:23:08.990Z,34.19
2024-04-30T13:25:38.179Z,34.31
2024-04-30T13:28:06.278Z,34.51
2024-04-30T13:30:34.257Z,34.71
2024-04-30T13:33:03.193Z,34.79
2024-04-30T13:35:30.994Z,34.79
2024-04-30T13:37:58.528Z,34.81
2024-04-30T13:40:26.267Z,34.86
2024-04-30T13:42:53.912Z,34.95
2024-04-30T13:45:21.590Z,34.91
2024-04-30T13:47:49.417Z,34.90
2024-04-30T13:50:17.059Z,35.02
2024-04-30T13:52:44.735Z,35.20
2024-04-30T13:55:12.464Z,35.43
2024-04-30T13:57:41.124Z,35.57
2024-04-30T14:00:11.877Z,35.76
2024-04-30T14:02:42.472Z,35.85
2024-04-30T14:05:10.142Z,36.02
2024-04-30T14:07:37.923Z,36.31
2024-04-30T14:10:05.792Z,36.55
2024-04-30T14:12:33.491Z,36.69
2024-04-30T14:15:01.561Z,36.85
2024-04-30T14:17:29.170Z,37.08
2024-04-30T14:19:56.869Z,37.30
2024-04-30T14:22:24.900Z,37.65
2024-04-30T14:24:52.711Z,37.96
2024-04-30T14:27:20.983Z,38.16
2024-04-30T14:29:48.546Z,38.31
2024-04-30T14:32:16.227Z,38.50
2024-04-30T14:34:43.962Z,38.68
2024-04-30T14:37:11.611Z,38.92
2024-04-30T14:39:39.343Z,39.17
2024-04-30T14:42:07.117Z,39.32
2024-04-30T14:44:36.109Z,39.37
2024-04-30T14:47:03.781Z,39.38
2024-04-30T14:49:31.455Z,39.58
2024-04-30T14:51:59.078Z,39.81
2024-04-30T14:54:26.637Z,39.93
2024-04-30T14:56:55.544Z,40.05
2024-04-30T14:59:23.657Z,40.22
2024-04-30T15:01:51.438Z,40.42
2024-04-30T15:04:19.304Z,40.66
2024-04-30T15:06:47.146Z,40.87
2024-04-30T15:09:15.097Z,41.05
2024-04-30T15:11:42.768Z,41.33
2024-04-30T15:14:10.403Z,41.50
2024-04-30T15:16:43.204Z,41.62
2024-04-30T15:19:11.433Z,41.74
2024-04-30T15:21:42.499Z,41.81
2024-04-30T15:24:10.030Z,41.92
2024-04-30T15:26:38.646Z,41.91
2024-04-30T15:29:06.707Z,41.77
2024-04-30T15:31:34.452Z,42.07
2024-04-30T15:34:02.244Z,42.46
2024-04-30T15:36:29.881Z,42.83
2024-04-30T15:38:57.671Z,43.26
2024-04-30T15:41:25.256Z,43.72
2024-04-30T15:43:53.241Z,44.09
2024-04-30T15:46:20.922Z,44.44
2024-04-30T15:48:50.830Z,44.67
2024-04-30T15:51:19.414Z,44.84
2024-04-30T15:53:47.138Z,44.89
2024-04-30T15:56:19.460Z,44.92
2024-04-30T15:58:48.094Z,45.09
2024-04-30T16:01:16.025Z,45.03
2024-04-30T16:03:44.481Z,44.88
2024-04-30T16:06:12.217Z,44.87
2024-04-30T16:08:39.847Z,44.95
2024-04-30T16:11:10.443Z,45.05
2024-04-30T16:13:41.095Z,45.01
2024-04-30T16:16:16.221Z,44.86
2024-04-30T16:18:47.490Z,44.80
2024-04-30T16:21:16.465Z,44.84
2024-04-30T16:23:44.369Z,44.76
2024-04-30T16:26:12.158Z,44.71
2024-04-30T16:28:43.538Z,44.66
2024-04-30T16:31:14.714Z,44.68
2024-04-30T16:33:42.959Z,44.77
2024-04-30T16:36:16.955Z,44.56
2024-04-30T16:38:45.083Z,44.25
2024-04-30T16:41:16.084Z,43.95
2024-04-30T16:43:43.967Z,43.66
2024-04-30T16:46:11.630Z,43.43
2024-04-30T16:48:39.764Z,43.26
2024-04-30T16:51:11.874Z,43.23
2024-04-30T16:53:39.968Z,43.29
2024-04-30T16:56:07.608Z,43.46
2024-04-30T16:58:35.276Z,43.65
2024-04-30T17:01:03.585Z,43.75
2024-04-30T17:03:31.655Z,43.62
2024-04-30T17:05:59.720Z,43.36
2024-04-30T17:08:28.341Z,42.88
2024-04-30T17:10:56.070Z,42.22
2024-04-30T17:13:24.127Z,41.55
2024-04-30T17:15:51.757Z,40.55
2024-04-30T17:18:20.429Z,39.31
2024-04-30T17:20:47.974Z,38.02
2024-04-30T17:23:18.126Z,36.84
2024-04-30T17:25:45.795Z,35.85
2024-04-30T17:28:17.312Z,34.90
2024-04-30T17:30:45.029Z,34.06
2024-04-30T17:33:13.269Z,33.37
2024-04-30T17:35:40.832Z,32.78
2024-04-30T17:38:09.654Z,32.28
2024-04-30T17:40:37.285Z,31.84
2024-04-30T17:43:07.978Z,31.44
2024-04-30T17:45:35.639Z,31.05
2024-04-30T17:48:03.630Z,30.66
2024-04-30T17:50:31.447Z,30.29
2024-04-30T17:52:59.132Z,29.95
2024-04-30T17:55:26.787Z,29.61
2024-04-30T17:57:54.489Z,29.30
2024-04-30T18:00:23.594Z,28.99
2024-04-30T18:02:52.600Z,28.69
2024-04-30T18:05:20.239Z,28.41
2024-04-30T18:07:47.939Z,28.13
2024-04-30T18:10:18.146Z,27.83
2024-04-30T18:12:48.017Z,27.58
2024-04-30T18:15:16.220Z,27.36
2024-04-30T18:17:43.963Z,27.17
2024-04-30T18:20:11.606Z,26.98
2024-04-30T18:22:41.531Z,26.78
2024-04-30T18:25:09.331Z,26.59
2024-04-30T18:27:36.927Z,26.41
2024-04-30T18:30:05.061Z,26.23
2024-04-30T18:32:32.747Z,26.04
2024-04-30T18:35:01.411Z,25.85
2024-04-30T18:37:29.056Z,25.67
2024-04-30T18:39:56.780Z,25.49
2024-04-30T18:42:24.858Z,25.35
2024-04-30T18:44:52.577Z,25.20
2024-04-30T18:47:20.158Z,25.03
2024-04-30T18:49:47.932Z,24.86
2024-04-30T18:52:15.689Z,24.70
2024-04-30T18:54:43.495Z,24.56
2024-04-30T18:57:11.337Z,24.44
2024-04-30T18:59:38.944Z,24.33
2024-04-30T19:02:06.688Z,24.21
2024-04-30T19:04:34.529Z,24.10
2024-04-30T19:07:02.348Z,23.99
2024-04-30T19:09:29.952Z,23.86
2024-04-30T19:11:59.318Z,23.73
2024-04-30T19:14:40.814Z,23.58
2024-04-30T19:17:08.377Z,23.46
2024-04-30T19:19:36.041Z,23.35
2024-04-30T19:22:03.685Z,23.26
2024-04-30T19:24:31.303Z,23.16
2024-04-30T19:26:58.899Z,23.07
2024-04-30T19:29:30.035Z,22.97
2024-04-30T19:31:57.781Z,22.88
2024-04-30T19:34:25.614Z,22.80
2024-04-30T19:36:54.083Z,22.71
2024-04-30T19:39:21.710Z,22.63
2024-04-30T19:41:49.180Z,22.53
2024-04-30T19:44:16.768Z,22.45
2024-04-30T19:46:44.689Z,22.38
2024-04-30T19:49:12.798Z,22.32
2024-04-30T19:51:40.506Z,22.26
2024-04-30T19:54:08.283Z,22.19
2024-04-30T19:56:35.770Z,22.10
2024-04-30T19:59:03.478Z,22.03
2024-04-30T20:01:31.307Z,21.95
2024-04-30T20:04:00.429Z,21.88
2024-04-30T20:06:28.531Z,21.82
2024-04-30T20:08:57.379Z,21.75
2024-04-30T20:11:30.188Z,21.69
2024-04-30T20:13:57.878Z,21.65
2024-04-30T20:16:26.760Z,21.60
2024-04-30T20:18:54.549Z,21.54
2024-04-30T20:21:22.428Z,21.48
2024-04-30T20:23:50.023Z,21.42
2024-04-30T20:26:17.536Z,21.37
2024-04-30T20:28:45.183Z,21.31
2024-04-30T20:31:12.819Z,21.23
2024-04-30T20:33:40.862Z,21.16
2024-04-30T20:36:18.086Z,21.09
2024-04-30T20:38:46.149Z,21.00
2024-04-30T20:41:14.112Z,20.94
2024-04-30T20:43:42.054Z,20.88
2024-04-30T20:46:09.557Z,20.83
2024-04-30T20:48:37.440Z,20.79
2024-04-30T20:51:05.386Z,20.75
2024-04-30T20:53:32.947Z,20.71
2024-04-30T20:56:00.501Z,20.67
2024-04-30T20:58:28.098Z,20.63
2024-04-30T21:00:55.747Z,20.62
2024-04-30T21:03:23.652Z,20.59
2024-04-30T21:05:51.702Z,20.58
2024-04-30T21:08:23.762Z,20.57
2024-04-30T21:10:51.741Z,20.55
2024-04-30T21:13:19.526Z,20.53
2024-04-30T21:15:47.211Z,20.51
2024-04-30T21:18:15.039Z,20.48
2024-04-30T21:20:42.692Z,20.46
2024-04-30T21:23:10.329Z,20.44
2024-04-30T21:25:37.895Z,20.42
2024-04-30T21:28:05.941Z,20.39
2024-04-30T21:30:33.728Z,20.37
2024-04-30T21:33:03.371Z,20.34
2024-04-30T21:35:31.416Z,20.32
2024-04-30T21:37:58.957Z,20.29
2024-04-30T21:40:26.908Z,20.26
2024-04-30T21:42:54.654Z,20.22
2024-04-30T21:45:22.390Z,20.18
2024-04-30T21:47:50.190Z,20.13
2024-04-30T21:50:17.903Z,20.10
2024-04-30T21:52:45.888Z,20.06
2024-04-30T21:55:13.707Z,20.01
2024-04-30T21:57:41.567Z,19.95
2024-04-30T22:00:13.676Z,19.90
2024-04-30T22:02:41.401Z,19.84
2024-04-30T22:05:09.009Z,19.79
2024-04-30T22:07:36.685Z,19.74
2024-04-30T22:10:04.852Z,19.69
2024-04-30T22:12:32.938Z,19.63
2024-04-30T22:15:00.766Z,19.56
2024-04-30T22:17:28.445Z,19.49
2024-04-30T22:19:56.213Z,19.42
2024-04-30T22:22:24.111Z,19.34
2024-04-30T22:24:51.653Z,19.26
2024-04-30T22:27:19.222Z,19.18
2024-04-30T22:29:48.545Z,19.10
2024-04-30T22:32:17.924Z,19.03
2024-04-30T22:34:45.536Z,18.97
2024-04-30T22:37:13.086Z,18.93
2024-04-30T22:39:40.743Z,18.89
2024-04-30T22:42:08.869Z,18.86
2024-04-30T22:44:36.805Z,18.83
2024-04-30T22:47:04.788Z,18.80
2024-04-30T22:49:32.427Z,18.77
2024-04-30T22:52:00.132Z,18.75
2024-04-30T22:54:27.830Z,18.74
2024-04-30T22:56:55.439Z,18.74
2024-04-30T22:59:23.367Z,18.74
2024-04-30T23:01:51.521Z,18.74
2024-04-30T23:04:19.499Z,18.72
2024-04-30T23:06:47.208Z,18.71
2024-04-30T23:09:15.276Z,18.69
2024-04-30T23:11:43.677Z,18.66
2024-04-30T23:14:11.770Z,18.64
2024-04-30T23:16:39.380Z,18.62
2024-04-30T23:19:07.096Z,18.62
2024-04-30T23:21:38.408Z,18.61
2024-04-30T23:24:06.106Z,18.59
2024-04-30T23:26:33.777Z,18.57
2024-04-30T23:29:01.635Z,18.56
2024-04-30T23:31:29.251Z,18.53
2024-04-30T23:33:56.795Z,18.50
2024-04-30T23:36:25.166Z,18.48
2024-04-30T23:38:52.731Z,18.46
2024-04-30T23:41:20.475Z,18.45
2024-04-30T23:43:48.192Z,18.42
2024-04-30T23:46:15.690Z,18.40
2024-04-30T23:48:43.366Z,18.36
2024-04-30T23:51:14.083Z,18.31
2024-04-30T23:53:42.219Z,18.26
2024-04-30T23:56:10.022Z,18.23
2024-04-30T23:58:38.326Z,18.19
